sensor_id;sensor_type;location;lat;lon;timestamp;temperature;humidity
8684;DHT22;4379;59.744;18.206;2022-09-02T00:01:42;7.60;99.90
8684;DHT22;4379;59.744;18.206;2022-09-02T00:04:20;7.60;99.90
8684;DHT22;4379;59.744;18.206;2022-09-02T00:06:50;7.50;99.90
8684;DHT22;4379;59.744;18.206;2022-09-02T00:09:20;7.50;99.90
8684;DHT22;4379;59.744;18.206;2022-09-02T00:11:50;7.50;99.90
8684;DHT22;4379;59.744;18.206;2022-09-02T00:14:21;7.40;99.90
8684;DHT22;4379;59.744;18.206;2022-09-02T00:16:49;7.40;99.90
8684;DHT22;4379;59.744;18.206;2022-09-02T00:19:22;7.40;99.90
8684;DHT22;4379;59.744;18.206;2022-09-02T00:21:51;7.40;99.90
8684;DHT22;4379;59.744;18.206;2022-09-02T00:24:20;7.40;99.90
8684;DHT22;4379;59.744;18.206;2022-09-02T00:26:48;7.50;99.90
8684;DHT22;4379;59.744;18.206;2022-09-02T00:29:16;7.50;99.90
8684;DHT22;4379;59.744;18.206;2022-09-02T00:31:44;7.60;99.90
8684;DHT22;4379;59.744;18.206;2022-09-02T00:34:13;7.60;99.90
8684;DHT22;4379;59.744;18.206;2022-09-02T00:36:41;7.60;99.90
8684;DHT22;4379;59.744;18.206;2022-09-02T00:39:09;7.60;99.90
8684;DHT22;4379;59.744;18.206;2022-09-02T00:41:39;7.70;99.90
8684;DHT22;4379;59.744;18.206;2022-09-02T00:44:09;7.70;99.90
8684;DHT22;4379;59.744;18.206;2022-09-02T00:46:38;7.80;99.90
8684;DHT22;4379;59.744;18.206;2022-09-02T00:49:28;7.70;99.90
8684;DHT22;4379;59.744;18.206;2022-09-02T00:52:02;7.80;99.90
8684;DHT22;4379;59.744;18.206;2022-09-02T00:54:33;7.80;99.90
8684;DHT22;4379;59.744;18.206;2022-09-02T00:57:02;7.80;99.90
8684;DHT22;4379;59.744;18.206;2022-09-02T01:02:29;7.80;99.90
8684;DHT22;4379;59.744;18.206;2022-09-02T01:04:58;7.90;99.90
8684;DHT22;4379;59.744;18.206;2022-09-02T01:07:30;7.80;99.90
8684;DHT22;4379;59.744;18.206;2022-09-02T01:10:01;7.80;99.90
8684;DHT22;4379;59.744;18.206;2022-09-02T01:12:30;7.70;99.90
8684;DHT22;4379;59.744;18.206;2022-09-02T01:14:58;7.70;99.90
8684;DHT22;4379;59.744;18.206;2022-09-02T01:17:26;7.60;99.90
8684;DHT22;4379;59.744;18.206;2022-09-02T01:20:04;7.50;99.90
8684;DHT22;4379;59.744;18.206;2022-09-02T01:22:33;7.40;99.90
8684;DHT22;4379;59.744;18.206;2022-09-02T01:25:06;7.30;99.90
8684;DHT22;4379;59.744;18.206;2022-09-02T01:27:34;7.20;99.90
8684;DHT22;4379;59.744;18.206;2022-09-02T01:30:04;7.10;99.90
8684;DHT22;4379;59.744;18.206;2022-09-02T01:32:32;7.00;99.90
8684;DHT22;4379;59.744;18.206;2022-09-02T01:34:59;6.90;99.90
8684;DHT22;4379;59.744;18.206;2022-09-02T01:37:27;6.90;99.90
8684;DHT22;4379;59.744;18.206;2022-09-02T01:39:54;6.80;99.90
8684;DHT22;4379;59.744;18.206;2022-09-02T01:42:23;6.80;99.90
8684;DHT22;4379;59.744;18.206;2022-09-02T01:44:51;6.70;99.90
8684;DHT22;4379;59.744;18.206;2022-09-02T01:47:23;6.70;99.90
8684;DHT22;4379;59.744;18.206;2022-09-02T01:49:50;6.70;99.90
8684;DHT22;4379;59.744;18.206;2022-09-02T01:52:20;6.70;99.90
8684;DHT22;4379;59.744;18.206;2022-09-02T01:54:48;6.60;99.90
8684;DHT22;4379;59.744;18.206;2022-09-02T01:57:16;6.50;99.90
8684;DHT22;4379;59.744;18.206;2022-09-02T01:59:43;6.50;99.90
8684;DHT22;4379;59.744;18.206;2022-09-02T02:02:12;6.40;99.90
8684;DHT22;4379;59.744;18.206;2022-09-02T02:04:40;6.30;99.90
8684;DHT22;4379;59.744;18.206;2022-09-02T02:07:07;6.20;99.90
8684;DHT22;4379;59.744;18.206;2022-09-02T02:09:35;6.10;99.90
8684;DHT22;4379;59.744;18.206;2022-09-02T02:12:03;6.10;99.90
8684;DHT22;4379;59.744;18.206;2022-09-02T02:14:32;6.10;99.90
8684;DHT22;4379;59.744;18.206;2022-09-02T02:17:00;6.10;99.90
8684;DHT22;4379;59.744;18.206;2022-09-02T02:19:27;6.00;99.90
8684;DHT22;4379;59.744;18.206;2022-09-02T02:21:57;6.00;99.90
8684;DHT22;4379;59.744;18.206;2022-09-02T02:24:25;5.90;99.90
8684;DHT22;4379;59.744;18.206;2022-09-02T02:26:52;5.90;99.90
8684;DHT22;4379;59.744;18.206;2022-09-02T02:29:20;5.90;99.90
8684;DHT22;4379;59.744;18.206;2022-09-02T02:31:48;6.00;99.90
8684;DHT22;4379;59.744;18.206;2022-09-02T02:34:16;6.00;99.90
8684;DHT22;4379;59.744;18.206;2022-09-02T02:36:44;6.00;99.90
8684;DHT22;4379;59.744;18.206;2022-09-02T02:39:12;6.00;99.90
8684;DHT22;4379;59.744;18.206;2022-09-02T02:41:40;5.90;99.90
8684;DHT22;4379;59.744;18.206;2022-09-02T02:44:11;5.90;99.90
8684;DHT22;4379;59.744;18.206;2022-09-02T02:46:38;5.80;99.90
8684;DHT22;4379;59.744;18.206;2022-09-02T02:49:06;5.80;99.90
8684;DHT22;4379;59.744;18.206;2022-09-02T02:51:34;5.80;99.90
8684;DHT22;4379;59.744;18.206;2022-09-02T02:54:02;5.70;99.90
8684;DHT22;4379;59.744;18.206;2022-09-02T02:56:30;5.60;99.90
8684;DHT22;4379;59.744;18.206;2022-09-02T02:58:58;5.60;99.90
8684;DHT22;4379;59.744;18.206;2022-09-02T03:01:30;5.50;99.90
8684;DHT22;4379;59.744;18.206;2022-09-02T03:03:58;5.50;99.90
8684;DHT22;4379;59.744;18.206;2022-09-02T03:06:25;5.50;99.90
8684;DHT22;4379;59.744;18.206;2022-09-02T03:08:53;5.50;99.90
8684;DHT22;4379;59.744;18.206;2022-09-02T03:11:20;5.40;99.90
8684;DHT22;4379;59.744;18.206;2022-09-02T03:13:52;5.50;99.90
8684;DHT22;4379;59.744;18.206;2022-09-02T03:16:19;5.50;99.90
8684;DHT22;4379;59.744;18.206;2022-09-02T03:18:48;5.60;99.90
8684;DHT22;4379;59.744;18.206;2022-09-02T03:21:17;5.60;99.90
8684;DHT22;4379;59.744;18.206;2022-09-02T03:23:46;5.50;99.90
8684;DHT22;4379;59.744;18.206;2022-09-02T03:26:16;5.50;99.90
8684;DHT22;4379;59.744;18.206;2022-09-02T03:28:45;5.50;99.90
8684;DHT22;4379;59.744;18.206;2022-09-02T03:31:16;5.50;99.90
8684;DHT22;4379;59.744;18.206;2022-09-02T03:33:44;5.60;99.90
8684;DHT22;4379;59.744;18.206;2022-09-02T03:36:45;5.70;99.90
8684;DHT22;4379;59.744;18.206;2022-09-02T03:39:12;5.70;99.90
8684;DHT22;4379;59.744;18.206;2022-09-02T03:41:40;5.70;99.90
8684;DHT22;4379;59.744;18.206;2022-09-02T03:44:08;5.80;99.90
8684;DHT22;4379;59.744;18.206;2022-09-02T03:46:36;5.80;99.90
8684;DHT22;4379;59.744;18.206;2022-09-02T03:49:03;6.00;99.90
8684;DHT22;4379;59.744;18.206;2022-09-02T03:51:31;6.00;99.90
8684;DHT22;4379;59.744;18.206;2022-09-02T03:53:59;6.00;99.90
8684;DHT22;4379;59.744;18.206;2022-09-02T03:56:31;6.00;99.90
8684;DHT22;4379;59.744;18.206;2022-09-02T03:58:59;5.90;99.90
8684;DHT22;4379;59.744;18.206;2022-09-02T04:01:27;5.90;99.90
8684;DHT22;4379;59.744;18.206;2022-09-02T04:04:02;5.80;99.90
8684;DHT22;4379;59.744;18.206;2022-09-02T04:06:29;5.80;99.90
8684;DHT22;4379;59.744;18.206;2022-09-02T04:08:59;5.90;99.90
8684;DHT22;4379;59.744;18.206;2022-09-02T04:11:26;5.90;99.90
8684;DHT22;4379;59.744;18.206;2022-09-02T04:13:53;5.80;99.90
8684;DHT22;4379;59.744;18.206;2022-09-02T04:16:23;5.80;99.90
8684;DHT22;4379;59.744;18.206;2022-09-02T04:18:56;5.90;99.90
8684;DHT22;4379;59.744;18.206;2022-09-02T04:21:25;5.90;99.90
8684;DHT22;4379;59.744;18.206;2022-09-02T04:23:53;5.90;99.90
8684;DHT22;4379;59.744;18.206;2022-09-02T04:26:21;5.90;99.90
8684;DHT22;4379;59.744;18.206;2022-09-02T04:28:49;6.10;99.90
8684;DHT22;4379;59.744;18.206;2022-09-02T04:31:18;6.30;99.90
8684;DHT22;4379;59.744;18.206;2022-09-02T04:33:48;6.40;99.90
8684;DHT22;4379;59.744;18.206;2022-09-02T04:36:16;6.40;99.90
8684;DHT22;4379;59.744;18.206;2022-09-02T04:38:46;6.50;99.90
8684;DHT22;4379;59.744;18.206;2022-09-02T04:41:20;6.40;99.90
8684;DHT22;4379;59.744;18.206;2022-09-02T04:43:50;6.60;99.90
8684;DHT22;4379;59.744;18.206;2022-09-02T04:46:18;6.60;99.90
8684;DHT22;4379;59.744;18.206;2022-09-02T04:49:02;6.70;99.90
8684;DHT22;4379;59.744;18.206;2022-09-02T04:51:29;6.80;99.90
8684;DHT22;4379;59.744;18.206;2022-09-02T04:53:57;6.90;99.90
8684;DHT22;4379;59.744;18.206;2022-09-02T04:56:26;7.00;99.90
8684;DHT22;4379;59.744;18.206;2022-09-02T04:58:55;7.00;99.90
8684;DHT22;4379;59.744;18.206;2022-09-02T05:01:26;7.10;99.90
8684;DHT22;4379;59.744;18.206;2022-09-02T05:03:54;7.30;99.90
8684;DHT22;4379;59.744;18.206;2022-09-02T05:06:24;7.40;99.90
8684;DHT22;4379;59.744;18.206;2022-09-02T05:08:55;7.60;99.90
8684;DHT22;4379;59.744;18.206;2022-09-02T05:11:26;7.90;99.90
8684;DHT22;4379;59.744;18.206;2022-09-02T05:14:00;8.10;99.90
8684;DHT22;4379;59.744;18.206;2022-09-02T05:16:33;8.30;99.90
8684;DHT22;4379;59.744;18.206;2022-09-02T05:19:05;8.30;99.90
8684;DHT22;4379;59.744;18.206;2022-09-02T05:21:32;8.30;99.90
8684;DHT22;4379;59.744;18.206;2022-09-02T05:24:00;8.30;99.90
8684;DHT22;4379;59.744;18.206;2022-09-02T05:26:27;8.40;99.90
8684;DHT22;4379;59.744;18.206;2022-09-02T05:28:55;8.20;99.90
8684;DHT22;4379;59.744;18.206;2022-09-02T05:31:22;8.10;99.90
8684;DHT22;4379;59.744;18.206;2022-09-02T05:33:50;8.10;99.90
8684;DHT22;4379;59.744;18.206;2022-09-02T05:36:19;8.10;99.90
8684;DHT22;4379;59.744;18.206;2022-09-02T05:38:48;8.00;99.90
8684;DHT22;4379;59.744;18.206;2022-09-02T05:41:21;8.00;99.90
8684;DHT22;4379;59.744;18.206;2022-09-02T05:43:51;8.10;99.90
8684;DHT22;4379;59.744;18.206;2022-09-02T05:46:21;8.40;99.90
8684;DHT22;4379;59.744;18.206;2022-09-02T05:48:51;8.80;99.90
8684;DHT22;4379;59.744;18.206;2022-09-02T05:51:42;9.80;99.90
8684;DHT22;4379;59.744;18.206;2022-09-02T05:54:16;10.90;99.90
8684;DHT22;4379;59.744;18.206;2022-09-02T05:56:46;12.00;99.90
8684;DHT22;4379;59.744;18.206;2022-09-02T05:59:14;14.70;99.90
8684;DHT22;4379;59.744;18.206;2022-09-02T06:01:42;17.70;99.90
8684;DHT22;4379;59.744;18.206;2022-09-02T06:04:10;19.50;99.90
8684;DHT22;4379;59.744;18.206;2022-09-02T06:06:37;21.20;99.90
8684;DHT22;4379;59.744;18.206;2022-09-02T06:09:06;23.20;99.90
8684;DHT22;4379;59.744;18.206;2022-09-02T06:11:36;23.90;99.90
8684;DHT22;4379;59.744;18.206;2022-09-02T06:14:06;23.90;99.90
8684;DHT22;4379;59.744;18.206;2022-09-02T06:16:34;21.20;99.90
8684;DHT22;4379;59.744;18.206;2022-09-02T06:19:02;19.50;99.90
8684;DHT22;4379;59.744;18.206;2022-09-02T06:21:31;18.90;99.90
8684;DHT22;4379;59.744;18.206;2022-09-02T06:23:59;19.40;99.90
8684;DHT22;4379;59.744;18.206;2022-09-02T06:26:27;19.20;99.90
8684;DHT22;4379;59.744;18.206;2022-09-02T06:28:54;19.40;99.90
8684;DHT22;4379;59.744;18.206;2022-09-02T06:31:23;19.10;99.90
8684;DHT22;4379;59.744;18.206;2022-09-02T06:33:54;18.60;99.90
8684;DHT22;4379;59.744;18.206;2022-09-02T06:36:25;17.80;99.90
8684;DHT22;4379;59.744;18.206;2022-09-02T06:38:56;17.20;99.90
8684;DHT22;4379;59.744;18.206;2022-09-02T06:41:29;16.10;99.90
8684;DHT22;4379;59.744;18.206;2022-09-02T06:44:02;15.20;99.90
8684;DHT22;4379;59.744;18.206;2022-09-02T06:46:36;14.90;99.90
8684;DHT22;4379;59.744;18.206;2022-09-02T06:49:06;14.70;99.90
8684;DHT22;4379;59.744;18.206;2022-09-02T06:51:40;14.30;99.90
8684;DHT22;4379;59.744;18.206;2022-09-02T06:54:11;14.10;99.90
8684;DHT22;4379;59.744;18.206;2022-09-02T06:56:41;13.90;99.90
8684;DHT22;4379;59.744;18.206;2022-09-02T06:59:15;13.80;99.90
8684;DHT22;4379;59.744;18.206;2022-09-02T07:01:44;13.80;99.90
8684;DHT22;4379;59.744;18.206;2022-09-02T07:04:13;13.80;99.90
8684;DHT22;4379;59.744;18.206;2022-09-02T07:06:59;13.70;99.90
8684;DHT22;4379;59.744;18.206;2022-09-02T07:09:27;14.20;99.90
8684;DHT22;4379;59.744;18.206;2022-09-02T07:11:59;14.70;99.90
8684;DHT22;4379;59.744;18.206;2022-09-02T07:14:34;14.90;99.90
8684;DHT22;4379;59.744;18.206;2022-09-02T07:17:02;15.70;99.90
8684;DHT22;4379;59.744;18.206;2022-09-02T07:19:30;16.20;99.90
8684;DHT22;4379;59.744;18.206;2022-09-02T07:21:58;16.10;99.90
8684;DHT22;4379;59.744;18.206;2022-09-02T07:24:25;16.20;99.90
8684;DHT22;4379;59.744;18.206;2022-09-02T07:26:52;17.50;99.90
8684;DHT22;4379;59.744;18.206;2022-09-02T07:29:22;20.60;99.90
8684;DHT22;4379;59.744;18.206;2022-09-02T07:31:49;22.20;99.90
8684;DHT22;4379;59.744;18.206;2022-09-02T07:34:17;25.30;99.90
8684;DHT22;4379;59.744;18.206;2022-09-02T07:36:46;27.10;99.90
8684;DHT22;4379;59.744;18.206;2022-09-02T07:39:16;28.50;99.90
8684;DHT22;4379;59.744;18.206;2022-09-02T07:41:46;27.60;99.90
8684;DHT22;4379;59.744;18.206;2022-09-02T07:44:18;29.10;99.90
8684;DHT22;4379;59.744;18.206;2022-09-02T07:46:46;28.50;99.90
8684;DHT22;4379;59.744;18.206;2022-09-02T07:49:14;30.00;99.90
8684;DHT22;4379;59.744;18.206;2022-09-02T07:51:46;31.90;99.90
8684;DHT22;4379;59.744;18.206;2022-09-02T07:54:18;30.70;99.90
8684;DHT22;4379;59.744;18.206;2022-09-02T07:56:47;30.40;99.90
8684;DHT22;4379;59.744;18.206;2022-09-02T07:59:16;28.90;99.90
8684;DHT22;4379;59.744;18.206;2022-09-02T08:01:46;27.40;99.90
8684;DHT22;4379;59.744;18.206;2022-09-02T08:04:15;28.10;99.90
8684;DHT22;4379;59.744;18.206;2022-09-02T08:06:45;27.00;99.90
8684;DHT22;4379;59.744;18.206;2022-09-02T08:09:13;24.90;99.90
8684;DHT22;4379;59.744;18.206;2022-09-02T08:11:43;23.40;99.90
8684;DHT22;4379;59.744;18.206;2022-09-02T08:14:14;22.30;99.90
8684;DHT22;4379;59.744;18.206;2022-09-02T08:16:45;20.90;99.90
8684;DHT22;4379;59.744;18.206;2022-09-02T08:19:13;19.50;99.90
8684;DHT22;4379;59.744;18.206;2022-09-02T08:21:41;18.80;99.90
8684;DHT22;4379;59.744;18.206;2022-09-02T08:24:08;18.10;99.90
8684;DHT22;4379;59.744;18.206;2022-09-02T08:26:36;17.20;99.90
8684;DHT22;4379;59.744;18.206;2022-09-02T08:29:05;16.20;99.90
8684;DHT22;4379;59.744;18.206;2022-09-02T08:31:35;16.00;99.90
8684;DHT22;4379;59.744;18.206;2022-09-02T08:34:02;15.60;99.90
8684;DHT22;4379;59.744;18.206;2022-09-02T08:36:30;15.20;99.90
8684;DHT22;4379;59.744;18.206;2022-09-02T08:39:00;14.90;99.90
8684;DHT22;4379;59.744;18.206;2022-09-02T08:41:36;14.30;99.90
8684;DHT22;4379;59.744;18.206;2022-09-02T08:44:09;14.10;99.90
8684;DHT22;4379;59.744;18.206;2022-09-02T08:46:39;13.90;99.90
8684;DHT22;4379;59.744;18.206;2022-09-02T08:49:11;13.90;99.90
8684;DHT22;4379;59.744;18.206;2022-09-02T08:51:57;15.40;99.90
8684;DHT22;4379;59.744;18.206;2022-09-02T08:57:08;20.00;99.90
8684;DHT22;4379;59.744;18.206;2022-09-02T08:59:38;21.10;99.90
8684;DHT22;4379;59.744;18.206;2022-09-02T09:05:25;23.10;99.90
8684;DHT22;4379;59.744;18.206;2022-09-02T09:16:32;19.60;99.90
8684;DHT22;4379;59.744;18.206;2022-09-02T09:19:15;19.20;99.90
8684;DHT22;4379;59.744;18.206;2022-09-02T09:21:44;19.10;99.90
8684;DHT22;4379;59.744;18.206;2022-09-02T09:24:37;17.70;99.90
8684;DHT22;4379;59.744;18.206;2022-09-02T09:27:17;18.00;99.90
8684;DHT22;4379;59.744;18.206;2022-09-02T09:29:45;18.50;99.90
8684;DHT22;4379;59.744;18.206;2022-09-02T09:32:26;18.20;99.90
8684;DHT22;4379;59.744;18.206;2022-09-02T09:34:58;18.20;99.90
8684;DHT22;4379;59.744;18.206;2022-09-02T09:40:30;17.40;99.90
8684;DHT22;4379;59.744;18.206;2022-09-02T09:45:42;16.20;99.90
8684;DHT22;4379;59.744;18.206;2022-09-02T09:51:10;15.70;99.90
8684;DHT22;4379;59.744;18.206;2022-09-02T09:53:39;15.70;99.90
8684;DHT22;4379;59.744;18.206;2022-09-02T09:56:28;15.60;99.90
8684;DHT22;4379;59.744;18.206;2022-09-02T09:58:54;15.70;99.90
8684;DHT22;4379;59.744;18.206;2022-09-02T10:01:30;15.30;99.90
8684;DHT22;4379;59.744;18.206;2022-09-02T10:06:57;15.40;99.90
8684;DHT22;4379;59.744;18.206;2022-09-02T10:09:34;15.20;99.90
8684;DHT22;4379;59.744;18.206;2022-09-02T10:12:07;15.30;99.90
8684;DHT22;4379;59.744;18.206;2022-09-02T10:14:44;15.30;99.90
8684;DHT22;4379;59.744;18.206;2022-09-02T10:25:58;15.70;99.90
8684;DHT22;4379;59.744;18.206;2022-09-02T10:29:04;15.90;99.90
8684;DHT22;4379;59.744;18.206;2022-09-02T10:34:52;15.80;99.90
8684;DHT22;4379;59.744;18.206;2022-09-02T10:37:30;16.50;99.90
8684;DHT22;4379;59.744;18.206;2022-09-02T10:40:21;16.80;99.90
8684;DHT22;4379;59.744;18.206;2022-09-02T10:43:03;16.70;99.90
8684;DHT22;4379;59.744;18.206;2022-09-02T10:59:57;14.90;99.90
8684;DHT22;4379;59.744;18.206;2022-09-02T11:02:30;15.40;99.90
8684;DHT22;4379;59.744;18.206;2022-09-02T11:07:46;15.80;99.90
8684;DHT22;4379;59.744;18.206;2022-09-02T11:11:13;15.50;99.90
8684;DHT22;4379;59.744;18.206;2022-09-02T11:13:37;14.90;99.90
8684;DHT22;4379;59.744;18.206;2022-09-02T11:16:07;14.40;99.90
8684;DHT22;4379;59.744;18.206;2022-09-02T11:19:13;14.20;99.90
8684;DHT22;4379;59.744;18.206;2022-09-02T11:24:38;14.10;99.90
8684;DHT22;4379;59.744;18.206;2022-09-02T11:30:11;15.00;99.90
8684;DHT22;4379;59.744;18.206;2022-09-02T11:35:13;15.50;99.90
8684;DHT22;4379;59.744;18.206;2022-09-02T11:37:48;15.90;99.90
8684;DHT22;4379;59.744;18.206;2022-09-02T11:44:10;16.10;99.90
8684;DHT22;4379;59.744;18.206;2022-09-02T11:52:18;16.40;99.90
8684;DHT22;4379;59.744;18.206;2022-09-02T11:55:21;16.30;99.90
8684;DHT22;4379;59.744;18.206;2022-09-02T11:57:52;15.80;99.90
8684;DHT22;4379;59.744;18.206;2022-09-02T12:06:11;16.20;99.90
8684;DHT22;4379;59.744;18.206;2022-09-02T12:13:58;15.90;99.90
8684;DHT22;4379;59.744;18.206;2022-09-02T12:16:34;14.80;99.90
8684;DHT22;4379;59.744;18.206;2022-09-02T12:24:57;15.10;99.90
8684;DHT22;4379;59.744;18.206;2022-09-02T12:27:36;15.20;99.90
8684;DHT22;4379;59.744;18.206;2022-09-02T12:30:06;15.30;99.90
8684;DHT22;4379;59.744;18.206;2022-09-02T12:43:56;16.80;99.90
8684;DHT22;4379;59.744;18.206;2022-09-02T12:46:23;16.90;99.90
8684;DHT22;4379;59.744;18.206;2022-09-02T12:54:43;16.40;99.90
8684;DHT22;4379;59.744;18.206;2022-09-02T12:57:15;16.40;99.90
8684;DHT22;4379;59.744;18.206;2022-09-02T12:59:45;16.60;99.90
8684;DHT22;4379;59.744;18.206;2022-09-02T13:02:16;16.30;99.90
8684;DHT22;4379;59.744;18.206;2022-09-02T13:13:17;15.30;99.90
8684;DHT22;4379;59.744;18.206;2022-09-02T13:16:11;15.00;99.90
8684;DHT22;4379;59.744;18.206;2022-09-02T13:21:46;14.50;99.90
8684;DHT22;4379;59.744;18.206;2022-09-02T13:32:33;13.20;99.90
8684;DHT22;4379;59.744;18.206;2022-09-02T13:35:27;12.80;99.90
8684;DHT22;4379;59.744;18.206;2022-09-02T13:37:58;12.60;99.90
8684;DHT22;4379;59.744;18.206;2022-09-02T13:40:35;12.90;99.90
8684;DHT22;4379;59.744;18.206;2022-09-02T13:43:23;13.30;99.90
8684;DHT22;4379;59.744;18.206;2022-09-02T13:45:54;13.70;99.90
8684;DHT22;4379;59.744;18.206;2022-09-02T13:48:30;14.00;99.90
8684;DHT22;4379;59.744;18.206;2022-09-02T13:51:10;14.40;99.90
8684;DHT22;4379;59.744;18.206;2022-09-02T13:53:42;14.50;99.90
8684;DHT22;4379;59.744;18.206;2022-09-02T13:56:31;14.60;99.90
8684;DHT22;4379;59.744;18.206;2022-09-02T13:58:59;14.80;99.90
8684;DHT22;4379;59.744;18.206;2022-09-02T14:01:35;14.40;99.90
8684;DHT22;4379;59.744;18.206;2022-09-02T14:04:15;14.60;99.90
8684;DHT22;4379;59.744;18.206;2022-09-02T14:06:46;14.70;99.90
8684;DHT22;4379;59.744;18.206;2022-09-02T14:09:20;14.70;99.90
8684;DHT22;4379;59.744;18.206;2022-09-02T14:11:48;15.00;99.90
8684;DHT22;4379;59.744;18.206;2022-09-02T14:14:18;14.80;99.90
8684;DHT22;4379;59.744;18.206;2022-09-02T14:16:47;15.00;99.90
8684;DHT22;4379;59.744;18.206;2022-09-02T14:21:50;14.70;99.90
8684;DHT22;4379;59.744;18.206;2022-09-02T14:24:29;14.90;99.90
8684;DHT22;4379;59.744;18.206;2022-09-02T14:27:16;15.30;99.90
8684;DHT22;4379;59.744;18.206;2022-09-02T14:29:46;15.10;99.90
8684;DHT22;4379;59.744;18.206;2022-09-02T14:32:22;15.40;99.90
8684;DHT22;4379;59.744;18.206;2022-09-02T14:37:54;15.80;99.90
8684;DHT22;4379;59.744;18.206;2022-09-02T14:40:33;15.70;99.90
8684;DHT22;4379;59.744;18.206;2022-09-02T14:43:02;15.50;99.90
8684;DHT22;4379;59.744;18.206;2022-09-02T14:45:32;15.20;99.90
8684;DHT22;4379;59.744;18.206;2022-09-02T14:48:09;15.00;99.90
8684;DHT22;4379;59.744;18.206;2022-09-02T14:50:39;14.70;99.90
8684;DHT22;4379;59.744;18.206;2022-09-02T14:53:09;14.60;99.90
8684;DHT22;4379;59.744;18.206;2022-09-02T14:55:57;14.50;99.90
8684;DHT22;4379;59.744;18.206;2022-09-02T14:58:26;14.40;99.90
8684;DHT22;4379;59.744;18.206;2022-09-02T15:00:59;14.40;99.90
8684;DHT22;4379;59.744;18.206;2022-09-02T15:03:35;14.30;99.90
8684;DHT22;4379;59.744;18.206;2022-09-02T15:06:03;14.20;99.90
8684;DHT22;4379;59.744;18.206;2022-09-02T15:08:31;14.20;99.90
8684;DHT22;4379;59.744;18.206;2022-09-02T15:10:59;14.10;99.90
8684;DHT22;4379;59.744;18.206;2022-09-02T15:13:32;14.10;99.90
8684;DHT22;4379;59.744;18.206;2022-09-02T15:16:01;14.00;99.90
8684;DHT22;4379;59.744;18.206;2022-09-02T15:18:30;14.00;99.90
8684;DHT22;4379;59.744;18.206;2022-09-02T15:20:57;13.80;99.90
8684;DHT22;4379;59.744;18.206;2022-09-02T15:23:24;13.90;99.90
8684;DHT22;4379;59.744;18.206;2022-09-02T15:25:55;14.00;99.90
8684;DHT22;4379;59.744;18.206;2022-09-02T15:28:23;14.00;99.90
8684;DHT22;4379;59.744;18.206;2022-09-02T15:30:58;14.00;99.90
8684;DHT22;4379;59.744;18.206;2022-09-02T15:33:26;14.00;99.90
8684;DHT22;4379;59.744;18.206;2022-09-02T15:35:54;13.90;99.90
8684;DHT22;4379;59.744;18.206;2022-09-02T15:38:30;13.90;99.90
8684;DHT22;4379;59.744;18.206;2022-09-02T15:41:12;13.90;99.90
8684;DHT22;4379;59.744;18.206;2022-09-02T15:43:40;13.80;99.90
8684;DHT22;4379;59.744;18.206;2022-09-02T15:46:25;13.90;99.90
8684;DHT22;4379;59.744;18.206;2022-09-02T15:48:54;13.90;99.90
8684;DHT22;4379;59.744;18.206;2022-09-02T15:51:28;13.90;99.90
8684;DHT22;4379;59.744;18.206;2022-09-02T15:53:57;14.00;99.90
8684;DHT22;4379;59.744;18.206;2022-09-02T15:56:26;14.00;99.90
8684;DHT22;4379;59.744;18.206;2022-09-02T15:58:56;14.10;99.90
8684;DHT22;4379;59.744;18.206;2022-09-02T16:01:32;14.20;99.90
8684;DHT22;4379;59.744;18.206;2022-09-02T16:04:01;14.20;99.90
8684;DHT22;4379;59.744;18.206;2022-09-02T16:06:29;14.00;99.90
8684;DHT22;4379;59.744;18.206;2022-09-02T16:08:57;14.00;99.90
8684;DHT22;4379;59.744;18.206;2022-09-02T16:11:25;14.00;99.90
8684;DHT22;4379;59.744;18.206;2022-09-02T16:13:53;14.00;99.90
8684;DHT22;4379;59.744;18.206;2022-09-02T16:16:20;14.10;99.90
8684;DHT22;4379;59.744;18.206;2022-09-02T16:18:50;14.00;99.90
8684;DHT22;4379;59.744;18.206;2022-09-02T16:21:19;14.10;99.90
8684;DHT22;4379;59.744;18.206;2022-09-02T16:23:50;14.00;99.90
8684;DHT22;4379;59.744;18.206;2022-09-02T16:26:38;14.00;99.90
8684;DHT22;4379;59.744;18.206;2022-09-02T16:29:08;14.00;99.90
8684;DHT22;4379;59.744;18.206;2022-09-02T16:31:38;14.20;99.90
8684;DHT22;4379;59.744;18.206;2022-09-02T16:34:11;13.90;99.90
8684;DHT22;4379;59.744;18.206;2022-09-02T16:36:41;13.90;99.90
8684;DHT22;4379;59.744;18.206;2022-09-02T16:39:10;13.90;99.90
8684;DHT22;4379;59.744;18.206;2022-09-02T16:41:41;13.90;99.90
8684;DHT22;4379;59.744;18.206;2022-09-02T16:44:12;13.60;99.90
8684;DHT22;4379;59.744;18.206;2022-09-02T16:46:43;13.50;99.90
8684;DHT22;4379;59.744;18.206;2022-09-02T16:49:13;13.30;99.90
8684;DHT22;4379;59.744;18.206;2022-09-02T16:51:45;13.00;99.90
8684;DHT22;4379;59.744;18.206;2022-09-02T16:54:14;12.80;99.90
8684;DHT22;4379;59.744;18.206;2022-09-02T16:56:47;12.70;99.90
8684;DHT22;4379;59.744;18.206;2022-09-02T16:59:15;12.60;99.90
8684;DHT22;4379;59.744;18.206;2022-09-02T17:01:45;12.40;99.90
8684;DHT22;4379;59.744;18.206;2022-09-02T17:04:12;12.20;99.90
8684;DHT22;4379;59.744;18.206;2022-09-02T17:06:40;12.00;99.90
8684;DHT22;4379;59.744;18.206;2022-09-02T17:09:08;11.90;99.90
8684;DHT22;4379;59.744;18.206;2022-09-02T17:11:37;11.80;99.90
8684;DHT22;4379;59.744;18.206;2022-09-02T17:14:09;11.70;99.90
8684;DHT22;4379;59.744;18.206;2022-09-02T17:16:41;11.40;99.90
8684;DHT22;4379;59.744;18.206;2022-09-02T17:19:09;11.30;99.90
8684;DHT22;4379;59.744;18.206;2022-09-02T17:21:44;11.10;99.90
8684;DHT22;4379;59.744;18.206;2022-09-02T17:24:14;10.90;99.90
8684;DHT22;4379;59.744;18.206;2022-09-02T17:26:44;10.70;99.90
8684;DHT22;4379;59.744;18.206;2022-09-02T17:29:18;10.40;99.90
8684;DHT22;4379;59.744;18.206;2022-09-02T17:32:06;10.10;99.90
8684;DHT22;4379;59.744;18.206;2022-09-02T17:34:34;9.90;99.90
8684;DHT22;4379;59.744;18.206;2022-09-02T17:37:01;9.80;99.90
8684;DHT22;4379;59.744;18.206;2022-09-02T17:39:29;9.70;99.90
8684;DHT22;4379;59.744;18.206;2022-09-02T17:41:57;9.50;99.90
8684;DHT22;4379;59.744;18.206;2022-09-02T17:44:29;9.30;99.90
8684;DHT22;4379;59.744;18.206;2022-09-02T17:47:08;9.10;99.90
8684;DHT22;4379;59.744;18.206;2022-09-02T17:49:37;9.00;99.90
8684;DHT22;4379;59.744;18.206;2022-09-02T17:52:06;8.80;99.90
8684;DHT22;4379;59.744;18.206;2022-09-02T17:54:36;8.60;99.90
8684;DHT22;4379;59.744;18.206;2022-09-02T17:57:08;8.50;99.90
8684;DHT22;4379;59.744;18.206;2022-09-02T18:11:02;7.90;99.90
8684;DHT22;4379;59.744;18.206;2022-09-02T18:18:58;7.70;99.90
8684;DHT22;4379;59.744;18.206;2022-09-02T18:30:06;7.70;99.90
8684;DHT22;4379;59.744;18.206;2022-09-02T18:38:26;7.20;99.90
8684;DHT22;4379;59.744;18.206;2022-09-02T18:45:59;7.30;99.90
8684;DHT22;4379;59.744;18.206;2022-09-02T18:48:34;7.30;99.90
8684;DHT22;4379;59.744;18.206;2022-09-02T18:51:26;7.20;99.90
8684;DHT22;4379;59.744;18.206;2022-09-02T18:54:21;7.10;99.90
8684;DHT22;4379;59.744;18.206;2022-09-02T18:57:04;6.90;99.90
8684;DHT22;4379;59.744;18.206;2022-09-02T18:59:52;6.70;99.90
8684;DHT22;4379;59.744;18.206;2022-09-02T19:05:18;6.50;99.90
8684;DHT22;4379;59.744;18.206;2022-09-02T19:07:53;6.50;99.90
8684;DHT22;4379;59.744;18.206;2022-09-02T19:10:46;6.70;99.90
8684;DHT22;4379;59.744;18.206;2022-09-02T19:13:14;6.40;99.90
8684;DHT22;4379;59.744;18.206;2022-09-02T19:15:43;6.30;99.90